sensor_id;sensor_type;location;lat;lon;timestamp;P1;durP1;ratioP1;P2;durP2;ratioP2
5022;SDS011;2530;47.990;7.866;2023-08-06T00:01:49;2.28;;;2.00;;
5022;SDS011;2530;47.990;7.866;2023-08-06T00:04:14;2.70;;;2.10;;
5022;SDS011;2530;47.990;7.866;2023-08-06T00:06:40;2.40;;;2.00;;
5022;SDS011;2530;47.990;7.866;2023-08-06T00:09:05;2.92;;;2.08;;
5022;SDS011;2530;47.990;7.866;2023-08-06T00:11:31;2.55;;;2.00;;
5022;SDS011;2530;47.990;7.866;2023-08-06T00:13:56;3.07;;;2.30;;
5022;SDS011;2530;47.990;7.866;2023-08-06T00:16:22;3.50;;;1.70;;
5022;SDS011;2530;47.990;7.866;2023-08-06T00:18:48;2.20;;;1.90;;
5022;SDS011;2530;47.990;7.866;2023-08-06T00:21:13;2.22;;;2.00;;
5022;SDS011;2530;47.990;7.866;2023-08-06T00:23:39;3.67;;;2.30;;
5022;SDS011;2530;47.990;7.866;2023-08-06T00:26:05;3.50;;;2.10;;
5022;SDS011;2530;47.990;7.866;2023-08-06T00:28:31;2.60;;;1.90;;
5022;SDS011;2530;47.990;7.866;2023-08-06T00:30:56;1.93;;;1.70;;
5022;SDS011;2530;47.990;7.866;2023-08-06T00:33:22;4.80;;;2.17;;
5022;SDS011;2530;47.990;7.866;2023-08-06T00:35:49;3.13;;;2.45;;
5022;SDS011;2530;47.990;7.866;2023-08-06T00:38:15;3.13;;;1.80;;
5022;SDS011;2530;47.990;7.866;2023-08-06T00:40:40;2.75;;;2.33;;
5022;SDS011;2530;47.990;7.866;2023-08-06T00:43:06;2.45;;;1.70;;
5022;SDS011;2530;47.990;7.866;2023-08-06T00:45:33;2.13;;;1.80;;
5022;SDS011;2530;47.990;7.866;2023-08-06T00:48:00;3.70;;;1.90;;
5022;SDS011;2530;47.990;7.866;2023-08-06T00:50:26;2.63;;;2.20;;
5022;SDS011;2530;47.990;7.866;2023-08-06T00:52:52;2.03;;;1.73;;
5022;SDS011;2530;47.990;7.866;2023-08-06T00:55:19;3.05;;;1.95;;
5022;SDS011;2530;47.990;7.866;2023-08-06T00:57:44;3.20;;;2.10;;
5022;SDS011;2530;47.990;7.866;2023-08-06T01:00:10;2.60;;;1.63;;
5022;SDS011;2530;47.990;7.866;2023-08-06T01:02:36;3.88;;;2.00;;
5022;SDS011;2530;47.990;7.866;2023-08-06T01:05:02;2.90;;;1.70;;
5022;SDS011;2530;47.990;7.866;2023-08-06T01:07:32;3.55;;;1.80;;
5022;SDS011;2530;47.990;7.866;2023-08-06T01:15:35;2.20;;;1.70;;
5022;SDS011;2530;47.990;7.866;2023-08-06T01:18:06;1.75;;;1.65;;
5022;SDS011;2530;47.990;7.866;2023-08-06T01:20:33;2.15;;;1.60;;
5022;SDS011;2530;47.990;7.866;2023-08-06T01:22:58;1.80;;;1.40;;
5022;SDS011;2530;47.990;7.866;2023-08-06T01:25:30;1.60;;;1.50;;
5022;SDS011;2530;47.990;7.866;2023-08-06T01:28:14;1.97;;;1.70;;
5022;SDS011;2530;47.990;7.866;2023-08-06T01:30:52;1.67;;;1.40;;
5022;SDS011;2530;47.990;7.866;2023-08-06T01:33:24;1.50;;;1.00;;
5022;SDS011;2530;47.990;7.866;2023-08-06T01:35:52;2.10;;;1.50;;
5022;SDS011;2530;47.990;7.866;2023-08-06T01:38:20;1.60;;;1.40;;
5022;SDS011;2530;47.990;7.866;2023-08-06T01:40:45;1.90;;;1.20;;
5022;SDS011;2530;47.990;7.866;2023-08-06T01:43:11;1.37;;;1.13;;
5022;SDS011;2530;47.990;7.866;2023-08-06T01:45:36;1.30;;;1.20;;
5022;SDS011;2530;47.990;7.866;2023-08-06T01:48:02;1.70;;;1.30;;
5022;SDS011;2530;47.990;7.866;2023-08-06T01:50:28;1.60;;;1.43;;
5022;SDS011;2530;47.990;7.866;2023-08-06T01:52:53;1.90;;;1.10;;
5022;SDS011;2530;47.990;7.866;2023-08-06T01:55:19;1.70;;;1.45;;
5022;SDS011;2530;47.990;7.866;2023-08-06T01:57:44;3.20;;;1.30;;
5022;SDS011;2530;47.990;7.866;2023-08-06T02:00:10;3.33;;;1.37;;
5022;SDS011;2530;47.990;7.866;2023-08-06T02:02:36;1.30;;;1.05;;
5022;SDS011;2530;47.990;7.866;2023-08-06T02:05:02;3.08;;;1.38;;
5022;SDS011;2530;47.990;7.866;2023-08-06T02:07:27;3.50;;;1.60;;
5022;SDS011;2530;47.990;7.866;2023-08-06T02:09:53;3.57;;;1.57;;
5022;SDS011;2530;47.990;7.866;2023-08-06T02:12:18;2.00;;;1.40;;
5022;SDS011;2530;47.990;7.866;2023-08-06T02:14:44;3.58;;;1.33;;
5022;SDS011;2530;47.990;7.866;2023-08-06T02:17:09;3.90;;;1.70;;
5022;SDS011;2530;47.990;7.866;2023-08-06T02:19:35;2.80;;;1.52;;
5022;SDS011;2530;47.990;7.866;2023-08-06T02:22:00;3.27;;;1.30;;
5022;SDS011;2530;47.990;7.866;2023-08-06T02:24:27;2.17;;;1.40;;
5022;SDS011;2530;47.990;7.866;2023-08-06T02:26:52;4.10;;;1.90;;
5022;SDS011;2530;47.990;7.866;2023-08-06T02:29:20;2.95;;;1.52;;
5022;SDS011;2530;47.990;7.866;2023-08-06T02:31:46;3.97;;;1.80;;
5022;SDS011;2530;47.990;7.866;2023-08-06T02:34:11;2.10;;;1.50;;
5022;SDS011;2530;47.990;7.866;2023-08-06T02:36:37;2.70;;;1.30;;
5022;SDS011;2530;47.990;7.866;2023-08-06T02:39:02;1.98;;;1.30;;
5022;SDS011;2530;47.990;7.866;2023-08-06T02:41:28;3.00;;;1.30;;
5022;SDS011;2530;47.990;7.866;2023-08-06T02:43:53;2.87;;;1.10;;
5022;SDS011;2530;47.990;7.866;2023-08-06T02:46:19;2.20;;;1.10;;
5022;SDS011;2530;47.990;7.866;2023-08-06T02:48:44;2.13;;;1.00;;
5022;SDS011;2530;47.990;7.866;2023-08-06T02:51:10;1.60;;;1.00;;
5022;SDS011;2530;47.990;7.866;2023-08-06T02:53:35;1.10;;;0.90;;
5022;SDS011;2530;47.990;7.866;2023-08-06T02:56:01;1.90;;;0.90;;
5022;SDS011;2530;47.990;7.866;2023-08-06T02:58:26;3.13;;;1.10;;
5022;SDS011;2530;47.990;7.866;2023-08-06T03:00:59;1.90;;;1.10;;
5022;SDS011;2530;47.990;7.866;2023-08-06T03:03:29;2.27;;;0.70;;
5022;SDS011;2530;47.990;7.866;2023-08-06T03:05:55;2.27;;;0.80;;
5022;SDS011;2530;47.990;7.866;2023-08-06T03:08:21;0.70;;;0.70;;
5022;SDS011;2530;47.990;7.866;2023-08-06T03:10:47;2.33;;;0.90;;
5022;SDS011;2530;47.990;7.866;2023-08-06T03:13:17;0.98;;;0.68;;
5022;SDS011;2530;47.990;7.866;2023-08-06T03:15:43;1.00;;;0.80;;
5022;SDS011;2530;47.990;7.866;2023-08-06T03:18:16;1.77;;;0.60;;
5022;SDS011;2530;47.990;7.866;2023-08-06T03:20:41;1.48;;;0.88;;
5022;SDS011;2530;47.990;7.866;2023-08-06T03:23:07;1.13;;;0.60;;
5022;SDS011;2530;47.990;7.866;2023-08-06T03:25:34;2.07;;;0.67;;
5022;SDS011;2530;47.990;7.866;2023-08-06T03:28:00;0.82;;;0.50;;
5022;SDS011;2530;47.990;7.866;2023-08-06T03:30:26;2.10;;;0.50;;
5022;SDS011;2530;47.990;7.866;2023-08-06T03:32:51;2.40;;;1.30;;
5022;SDS011;2530;47.990;7.866;2023-08-06T03:35:17;1.27;;;0.60;;
5022;SDS011;2530;47.990;7.866;2023-08-06T03:37:42;1.47;;;0.70;;
5022;SDS011;2530;47.990;7.866;2023-08-06T03:40:08;2.85;;;0.40;;
5022;SDS011;2530;47.990;7.866;2023-08-06T03:42:34;1.08;;;0.50;;
5022;SDS011;2530;47.990;7.866;2023-08-06T03:44:59;1.80;;;0.50;;
5022;SDS011;2530;47.990;7.866;2023-08-06T03:47:25;3.50;;;0.50;;
5022;SDS011;2530;47.990;7.866;2023-08-06T03:49:50;1.50;;;0.50;;
5022;SDS011;2530;47.990;7.866;2023-08-06T03:52:16;1.40;;;0.60;;
5022;SDS011;2530;47.990;7.866;2023-08-06T03:54:41;0.60;;;0.40;;
5022;SDS011;2530;47.990;7.866;2023-08-06T03:57:08;1.10;;;0.50;;
5022;SDS011;2530;47.990;7.866;2023-08-06T03:59:34;1.42;;;0.50;;
5022;SDS011;2530;47.990;7.866;2023-08-06T04:01:59;1.57;;;0.60;;
5022;SDS011;2530;47.990;7.866;2023-08-06T04:04:25;1.20;;;0.80;;
5022;SDS011;2530;47.990;7.866;2023-08-06T04:06:50;1.40;;;0.40;;
5022;SDS011;2530;47.990;7.866;2023-08-06T04:09:16;0.90;;;0.50;;
5022;SDS011;2530;47.990;7.866;2023-08-06T04:11:41;1.50;;;0.50;;
5022;SDS011;2530;47.990;7.866;2023-08-06T04:14:07;1.00;;;0.70;;
5022;SDS011;2530;47.990;7.866;2023-08-06T04:16:32;0.70;;;0.40;;
5022;SDS011;2530;47.990;7.866;2023-08-06T04:18:58;2.70;;;0.70;;
5022;SDS011;2530;47.990;7.866;2023-08-06T04:21:23;0.80;;;0.40;;
5022;SDS011;2530;47.990;7.866;2023-08-06T04:23:49;0.70;;;0.50;;
5022;SDS011;2530;47.990;7.866;2023-08-06T04:26:15;0.73;;;0.50;;
5022;SDS011;2530;47.990;7.866;2023-08-06T04:28:40;1.00;;;0.60;;
5022;SDS011;2530;47.990;7.866;2023-08-06T04:31:06;2.67;;;0.50;;
5022;SDS011;2530;47.990;7.866;2023-08-06T04:33:31;2.80;;;0.80;;
5022;SDS011;2530;47.990;7.866;2023-08-06T04:35:57;1.80;;;1.00;;
5022;SDS011;2530;47.990;7.866;2023-08-06T04:38:23;2.20;;;0.80;;
5022;SDS011;2530;47.990;7.866;2023-08-06T04:40:49;3.40;;;0.90;;
5022;SDS011;2530;47.990;7.866;2023-08-06T04:43:15;4.80;;;1.30;;
5022;SDS011;2530;47.990;7.866;2023-08-06T04:45:47;4.20;;;1.10;;
5022;SDS011;2530;47.990;7.866;2023-08-06T04:48:15;2.33;;;1.00;;
5022;SDS011;2530;47.990;7.866;2023-08-06T04:50:48;4.55;;;1.30;;
5022;SDS011;2530;47.990;7.866;2023-08-06T04:53:14;3.90;;;1.20;;
5022;SDS011;2530;47.990;7.866;2023-08-06T04:55:41;5.38;;;1.40;;
5022;SDS011;2530;47.990;7.866;2023-08-06T04:58:06;5.22;;;1.50;;
5022;SDS011;2530;47.990;7.866;2023-08-06T05:00:33;5.25;;;1.80;;
5022;SDS011;2530;47.990;7.866;2023-08-06T05:02:59;2.80;;;1.30;;
5022;SDS011;2530;47.990;7.866;2023-08-06T05:05:25;3.42;;;1.70;;
5022;SDS011;2530;47.990;7.866;2023-08-06T05:07:51;3.80;;;1.40;;
5022;SDS011;2530;47.990;7.866;2023-08-06T05:10:19;4.78;;;1.90;;
5022;SDS011;2530;47.990;7.866;2023-08-06T05:12:44;7.30;;;2.05;;
5022;SDS011;2530;47.990;7.866;2023-08-06T05:15:10;5.10;;;1.70;;
5022;SDS011;2530;47.990;7.866;2023-08-06T05:17:35;5.30;;;2.00;;
5022;SDS011;2530;47.990;7.866;2023-08-06T05:20:01;4.88;;;1.58;;
5022;SDS011;2530;47.990;7.866;2023-08-06T05:22:26;6.13;;;1.80;;
5022;SDS011;2530;47.990;7.866;2023-08-06T05:24:52;4.97;;;1.37;;
5022;SDS011;2530;47.990;7.866;2023-08-06T05:27:17;5.07;;;1.80;;
5022;SDS011;2530;47.990;7.866;2023-08-06T05:29:45;5.90;;;2.00;;
5022;SDS011;2530;47.990;7.866;2023-08-06T05:32:12;3.92;;;1.80;;
5022;SDS011;2530;47.990;7.866;2023-08-06T05:34:38;2.60;;;1.20;;
5022;SDS011;2530;47.990;7.866;2023-08-06T05:37:04;3.73;;;1.60;;
5022;SDS011;2530;47.990;7.866;2023-08-06T05:39:30;5.75;;;1.67;;
5022;SDS011;2530;47.990;7.866;2023-08-06T05:41:55;2.67;;;1.50;;
5022;SDS011;2530;47.990;7.866;2023-08-06T05:44:21;2.33;;;1.40;;
5022;SDS011;2530;47.990;7.866;2023-08-06T05:46:48;3.17;;;1.15;;
5022;SDS011;2530;47.990;7.866;2023-08-06T05:49:14;2.75;;;1.38;;
5022;SDS011;2530;47.990;7.866;2023-08-06T05:51:40;5.38;;;1.60;;
5022;SDS011;2530;47.990;7.866;2023-08-06T05:54:05;5.72;;;1.83;;
5022;SDS011;2530;47.990;7.866;2023-08-06T05:56:31;2.17;;;1.30;;
5022;SDS011;2530;47.990;7.866;2023-08-06T05:58:56;3.87;;;1.83;;
5022;SDS011;2530;47.990;7.866;2023-08-06T06:01:22;2.97;;;1.80;;
5022;SDS011;2530;47.990;7.866;2023-08-06T06:03:48;2.92;;;1.35;;
5022;SDS011;2530;47.990;7.866;2023-08-06T06:06:13;1.75;;;1.10;;
5022;SDS011;2530;47.990;7.866;2023-08-06T06:08:39;2.90;;;1.60;;
5022;SDS011;2530;47.990;7.866;2023-08-06T06:11:05;3.25;;;0.80;;
5022;SDS011;2530;47.990;7.866;2023-08-06T06:13:30;4.30;;;1.30;;
5022;SDS011;2530;47.990;7.866;2023-08-06T06:15:56;2.70;;;0.90;;
5022;SDS011;2530;47.990;7.866;2023-08-06T06:18:22;2.88;;;1.40;;
5022;SDS011;2530;47.990;7.866;2023-08-06T06:20:47;3.40;;;1.30;;
5022;SDS011;2530;47.990;7.866;2023-08-06T06:23:13;3.90;;;1.20;;
5022;SDS011;2530;47.990;7.866;2023-08-06T06:25:46;4.40;;;1.60;;
5022;SDS011;2530;47.990;7.866;2023-08-06T06:28:12;4.78;;;1.60;;
5022;SDS011;2530;47.990;7.866;2023-08-06T06:30:38;4.00;;;1.50;;
5022;SDS011;2530;47.990;7.866;2023-08-06T06:33:03;3.20;;;0.80;;
5022;SDS011;2530;47.990;7.866;2023-08-06T06:35:29;1.10;;;1.00;;
5022;SDS011;2530;47.990;7.866;2023-08-06T06:37:55;3.13;;;0.93;;
5022;SDS011;2530;47.990;7.866;2023-08-06T06:40:20;1.40;;;0.90;;
5022;SDS011;2530;47.990;7.866;2023-08-06T06:42:46;2.50;;;0.90;;
5022;SDS011;2530;47.990;7.866;2023-08-06T06:45:11;2.87;;;0.97;;
5022;SDS011;2530;47.990;7.866;2023-08-06T06:47:37;3.58;;;1.02;;
5022;SDS011;2530;47.990;7.866;2023-08-06T06:50:02;2.33;;;1.00;;
5022;SDS011;2530;47.990;7.866;2023-08-06T06:52:29;1.80;;;0.90;;
5022;SDS011;2530;47.990;7.866;2023-08-06T06:54:54;2.50;;;1.00;;
5022;SDS011;2530;47.990;7.866;2023-08-06T06:57:20;2.10;;;0.70;;
5022;SDS011;2530;47.990;7.866;2023-08-06T06:59:46;2.80;;;0.90;;
5022;SDS011;2530;47.990;7.866;2023-08-06T07:02:11;1.48;;;0.88;;
5022;SDS011;2530;47.990;7.866;2023-08-06T07:04:37;2.80;;;0.80;;
5022;SDS011;2530;47.990;7.866;2023-08-06T07:07:02;2.20;;;1.00;;
5022;SDS011;2530;47.990;7.866;2023-08-06T07:09:28;1.40;;;0.70;;
5022;SDS011;2530;47.990;7.866;2023-08-06T07:11:53;2.90;;;0.70;;
5022;SDS011;2530;47.990;7.866;2023-08-06T07:14:19;1.33;;;0.60;;
5022;SDS011;2530;47.990;7.866;2023-08-06T07:16:44;1.83;;;0.80;;
5022;SDS011;2530;47.990;7.866;2023-08-06T07:19:10;2.20;;;0.60;;
5022;SDS011;2530;47.990;7.866;2023-08-06T07:21:35;1.30;;;0.50;;
5022;SDS011;2530;47.990;7.866;2023-08-06T07:24:01;1.80;;;0.80;;
5022;SDS011;2530;47.990;7.866;2023-08-06T07:26:27;0.98;;;0.50;;
5022;SDS011;2530;47.990;7.866;2023-08-06T07:28:52;2.00;;;0.80;;
5022;SDS011;2530;47.990;7.866;2023-08-06T07:31:18;1.80;;;0.70;;
5022;SDS011;2530;47.990;7.866;2023-08-06T07:33:43;1.23;;;0.50;;
5022;SDS011;2530;47.990;7.866;2023-08-06T07:36:10;0.80;;;0.40;;
5022;SDS011;2530;47.990;7.866;2023-08-06T07:38:36;1.10;;;0.50;;
5022;SDS011;2530;47.990;7.866;2023-08-06T07:41:02;0.90;;;0.50;;
5022;SDS011;2530;47.990;7.866;2023-08-06T07:43:28;0.60;;;0.40;;
5022;SDS011;2530;47.990;7.866;2023-08-06T07:45:54;1.00;;;0.50;;
5022;SDS011;2530;47.990;7.866;2023-08-06T07:48:22;1.70;;;0.40;;
5022;SDS011;2530;47.990;7.866;2023-08-06T07:50:51;1.50;;;0.50;;
5022;SDS011;2530;47.990;7.866;2023-08-06T07:53:20;0.60;;;0.45;;
5022;SDS011;2530;47.990;7.866;2023-08-06T07:55:48;1.13;;;0.50;;
5022;SDS011;2530;47.990;7.866;2023-08-06T07:58:18;0.50;;;0.30;;
5022;SDS011;2530;47.990;7.866;2023-08-06T08:00:48;0.40;;;0.40;;
5022;SDS011;2530;47.990;7.866;2023-08-06T08:03:14;0.80;;;0.40;;
5022;SDS011;2530;47.990;7.866;2023-08-06T08:05:41;0.47;;;0.37;;
5022;SDS011;2530;47.990;7.866;2023-08-06T08:08:07;1.30;;;0.47;;
5022;SDS011;2530;47.990;7.866;2023-08-06T08:10:33;0.70;;;0.50;;
5022;SDS011;2530;47.990;7.866;2023-08-06T08:12:59;1.30;;;0.40;;
5022;SDS011;2530;47.990;7.866;2023-08-06T08:15:28;0.50;;;0.40;;
5022;SDS011;2530;47.990;7.866;2023-08-06T08:17:54;1.17;;;0.68;;
5022;SDS011;2530;47.990;7.866;2023-08-06T08:20:20;0.70;;;0.40;;
5022;SDS011;2530;47.990;7.866;2023-08-06T08:22:45;0.57;;;0.30;;
5022;SDS011;2530;47.990;7.866;2023-08-06T08:25:11;0.60;;;0.40;;
5022;SDS011;2530;47.990;7.866;2023-08-06T08:27:37;1.55;;;0.40;;
5022;SDS011;2530;47.990;7.866;2023-08-06T08:30:02;0.60;;;0.40;;
5022;SDS011;2530;47.990;7.866;2023-08-06T08:32:28;0.70;;;0.40;;
5022;SDS011;2530;47.990;7.866;2023-08-06T08:34:54;0.70;;;0.50;;
5022;SDS011;2530;47.990;7.866;2023-08-06T08:37:19;0.93;;;0.40;;
5022;SDS011;2530;47.990;7.866;2023-08-06T08:39:45;0.60;;;0.40;;
5022;SDS011;2530;47.990;7.866;2023-08-06T08:42:10;2.47;;;0.57;;
5022;SDS011;2530;47.990;7.866;2023-08-06T08:44:36;1.07;;;0.40;;
5022;SDS011;2530;47.990;7.866;2023-08-06T08:47:04;0.70;;;0.60;;
5022;SDS011;2530;47.990;7.866;2023-08-06T08:49:31;0.90;;;0.60;;
5022;SDS011;2530;47.990;7.866;2023-08-06T08:51:57;0.80;;;0.60;;
5022;SDS011;2530;47.990;7.866;2023-08-06T08:54:24;0.70;;;0.50;;
5022;SDS011;2530;47.990;7.866;2023-08-06T08:56:51;1.20;;;0.60;;
5022;SDS011;2530;47.990;7.866;2023-08-06T08:59:16;0.50;;;0.40;;
5022;SDS011;2530;47.990;7.866;2023-08-06T09:01:42;0.87;;;0.50;;
5022;SDS011;2530;47.990;7.866;2023-08-06T09:04:09;0.63;;;0.50;;
5022;SDS011;2530;47.990;7.866;2023-08-06T09:06:36;1.55;;;0.50;;
5022;SDS011;2530;47.990;7.866;2023-08-06T09:09:15;0.80;;;0.60;;
5022;SDS011;2530;47.990;7.866;2023-08-06T09:11:46;0.70;;;0.50;;
5022;SDS011;2530;47.990;7.866;2023-08-06T09:14:14;1.90;;;0.40;;
5022;SDS011;2530;47.990;7.866;2023-08-06T09:16:39;0.85;;;0.40;;
5022;SDS011;2530;47.990;7.866;2023-08-06T09:19:12;0.68;;;0.40;;
5022;SDS011;2530;47.990;7.866;2023-08-06T09:21:40;1.20;;;0.50;;
5022;SDS011;2530;47.990;7.866;2023-08-06T09:24:07;0.50;;;0.30;;
5022;SDS011;2530;47.990;7.866;2023-08-06T09:26:36;0.50;;;0.40;;
5022;SDS011;2530;47.990;7.866;2023-08-06T09:29:04;0.60;;;0.40;;
5022;SDS011;2530;47.990;7.866;2023-08-06T09:31:41;0.77;;;0.50;;
5022;SDS011;2530;47.990;7.866;2023-08-06T09:34:11;1.00;;;0.50;;
5022;SDS011;2530;47.990;7.866;2023-08-06T09:36:53;1.10;;;0.55;;
5022;SDS011;2530;47.990;7.866;2023-08-06T09:39:19;0.47;;;0.40;;
5022;SDS011;2530;47.990;7.866;2023-08-06T09:41:47;0.90;;;0.50;;
5022;SDS011;2530;47.990;7.866;2023-08-06T09:44:17;0.80;;;0.50;;
5022;SDS011;2530;47.990;7.866;2023-08-06T09:46:47;0.80;;;0.40;;
5022;SDS011;2530;47.990;7.866;2023-08-06T09:49:14;0.55;;;0.50;;
5022;SDS011;2530;47.990;7.866;2023-08-06T09:51:44;2.90;;;0.60;;
5022;SDS011;2530;47.990;7.866;2023-08-06T09:54:16;0.70;;;0.50;;
5022;SDS011;2530;47.990;7.866;2023-08-06T09:56:42;0.60;;;0.30;;
5022;SDS011;2530;47.990;7.866;2023-08-06T09:59:08;0.70;;;0.40;;
5022;SDS011;2530;47.990;7.866;2023-08-06T10:01:34;1.10;;;0.40;;
5022;SDS011;2530;47.990;7.866;2023-08-06T10:04:04;1.50;;;0.40;;
5022;SDS011;2530;47.990;7.866;2023-08-06T10:06:33;0.88;;;0.50;;
5022;SDS011;2530;47.990;7.866;2023-08-06T10:09:05;0.80;;;0.60;;
5022;SDS011;2530;47.990;7.866;2023-08-06T10:11:32;0.60;;;0.50;;
5022;SDS011;2530;47.990;7.866;2023-08-06T10:14:00;0.40;;;0.30;;
5022;SDS011;2530;47.990;7.866;2023-08-06T10:16:30;0.50;;;0.35;;
5022;SDS011;2530;47.990;7.866;2023-08-06T10:18:56;1.23;;;0.40;;
5022;SDS011;2530;47.990;7.866;2023-08-06T10:21:25;0.80;;;0.50;;
5022;SDS011;2530;47.990;7.866;2023-08-06T10:23:56;0.60;;;0.40;;
5022;SDS011;2530;47.990;7.866;2023-08-06T10:26:28;1.25;;;0.52;;
5022;SDS011;2530;47.990;7.866;2023-08-06T10:28:54;0.70;;;0.40;;
5022;SDS011;2530;47.990;7.866;2023-08-06T10:31:31;0.90;;;0.40;;
5022;SDS011;2530;47.990;7.866;2023-08-06T10:34:24;0.50;;;0.50;;
5022;SDS011;2530;47.990;7.866;2023-08-06T10:36:50;1.00;;;0.50;;
5022;SDS011;2530;47.990;7.866;2023-08-06T10:39:20;0.90;;;0.40;;
5022;SDS011;2530;47.990;7.866;2023-08-06T10:41:45;2.70;;;0.60;;
5022;SDS011;2530;47.990;7.866;2023-08-06T10:44:11;0.60;;;0.50;;
5022;SDS011;2530;47.990;7.866;2023-08-06T10:46:37;0.80;;;0.40;;
5022;SDS011;2530;47.990;7.866;2023-08-06T10:49:03;0.50;;;0.40;;
5022;SDS011;2530;47.990;7.866;2023-08-06T10:51:29;0.73;;;0.55;;
5022;SDS011;2530;47.990;7.866;2023-08-06T10:53:55;1.00;;;0.60;;
5022;SDS011;2530;47.990;7.866;2023-08-06T10:56:23;1.00;;;0.40;;
5022;SDS011;2530;47.990;7.866;2023-08-06T10:58:51;0.57;;;0.40;;
5022;SDS011;2530;47.990;7.866;2023-08-06T11:01:19;1.10;;;0.55;;
5022;SDS011;2530;47.990;7.866;2023-08-06T11:03:46;1.38;;;0.60;;
5022;SDS011;2530;47.990;7.866;2023-08-06T11:06:17;0.60;;;0.50;;
5022;SDS011;2530;47.990;7.866;2023-08-06T11:08:48;1.30;;;0.40;;
5022;SDS011;2530;47.990;7.866;2023-08-06T11:11:14;0.73;;;0.55;;
5022;SDS011;2530;47.990;7.866;2023-08-06T11:13:44;0.52;;;0.40;;
5022;SDS011;2530;47.990;7.866;2023-08-06T11:16:12;2.08;;;1.00;;
5022;SDS011;2530;47.990;7.866;2023-08-06T11:18:39;2.50;;;0.63;;
5022;SDS011;2530;47.990;7.866;2023-08-06T11:21:06;0.68;;;0.60;;
5022;SDS011;2530;47.990;7.866;2023-08-06T11:23:32;0.60;;;0.60;;
5022;SDS011;2530;47.990;7.866;2023-08-06T11:25:59;1.20;;;0.80;;
5022;SDS011;2530;47.990;7.866;2023-08-06T11:28:25;1.50;;;0.60;;
5022;SDS011;2530;47.990;7.866;2023-08-06T11:30:51;1.10;;;0.70;;
5022;SDS011;2530;47.990;7.866;2023-08-06T11:33:26;0.52;;;0.50;;
5022;SDS011;2530;47.990;7.866;2023-08-06T11:35:54;1.30;;;0.90;;
5022;SDS011;2530;47.990;7.866;2023-08-06T11:38:21;0.70;;;0.50;;
5022;SDS011;2530;47.990;7.866;2023-08-06T11:40:50;0.60;;;0.50;;
5022;SDS011;2530;47.990;7.866;2023-08-06T11:43:16;1.00;;;0.50;;
5022;SDS011;2530;47.990;7.866;2023-08-06T11:45:44;0.70;;;0.50;;
5022;SDS011;2530;47.990;7.866;2023-08-06T11:48:09;1.50;;;0.50;;
5022;SDS011;2530;47.990;7.866;2023-08-06T11:50:38;0.80;;;0.40;;
5022;SDS011;2530;47.990;7.866;2023-08-06T11:53:04;1.63;;;0.30;;
5022;SDS011;2530;47.990;7.866;2023-08-06T11:55:30;0.90;;;0.30;;
5022;SDS011;2530;47.990;7.866;2023-08-06T11:57:56;0.40;;;0.30;;
5022;SDS011;2530;47.990;7.866;2023-08-06T12:00:25;0.50;;;0.50;;
5022;SDS011;2530;47.990;7.866;2023-08-06T12:02:51;0.60;;;0.43;;
5022;SDS011;2530;47.990;7.866;2023-08-06T12:05:18;0.50;;;0.30;;
5022;SDS011;2530;47.990;7.866;2023-08-06T12:07:52;0.82;;;0.40;;
5022;SDS011;2530;47.990;7.866;2023-08-06T12:10:21;0.60;;;0.40;;
5022;SDS011;2530;47.990;7.866;2023-08-06T12:12:49;0.50;;;0.40;;
5022;SDS011;2530;47.990;7.866;2023-08-06T12:15:15;0.65;;;0.40;;
5022;SDS011;2530;47.990;7.866;2023-08-06T12:17:41;2.30;;;0.50;;
5022;SDS011;2530;47.990;7.866;2023-08-06T12:20:07;0.80;;;0.60;;
5022;SDS011;2530;47.990;7.866;2023-08-06T12:22:34;0.50;;;0.50;;
5022;SDS011;2530;47.990;7.866;2023-08-06T12:25:01;0.60;;;0.40;;
5022;SDS011;2530;47.990;7.866;2023-08-06T12:27:37;2.30;;;0.60;;
5022;SDS011;2530;47.990;7.866;2023-08-06T12:30:04;1.30;;;0.50;;
5022;SDS011;2530;47.990;7.866;2023-08-06T12:32:30;1.02;;;0.45;;
5022;SDS011;2530;47.990;7.866;2023-08-06T12:34:56;0.70;;;0.60;;
5022;SDS011;2530;47.990;7.866;2023-08-06T12:37:23;1.30;;;0.50;;
5022;SDS011;2530;47.990;7.866;2023-08-06T12:39:49;0.60;;;0.40;;
5022;SDS011;2530;47.990;7.866;2023-08-06T12:42:15;1.30;;;0.60;;
5022;SDS011;2530;47.990;7.866;2023-08-06T12:44:40;0.90;;;0.60;;
5022;SDS011;2530;47.990;7.866;2023-08-06T12:47:09;0.63;;;0.50;;
5022;SDS011;2530;47.990;7.866;2023-08-06T12:49:34;0.55;;;0.40;;
5022;SDS011;2530;47.990;7.866;2023-08-06T12:52:00;2.25;;;0.50;;
5022;SDS011;2530;47.990;7.866;2023-08-06T12:54:26;4.30;;;0.73;;
5022;SDS011;2530;47.990;7.866;2023-08-06T12:56:52;1.10;;;0.60;;
5022;SDS011;2530;47.990;7.866;2023-08-06T12:59:18;0.90;;;0.80;;
5022;SDS011;2530;47.990;7.866;2023-08-06T13:01:44;1.20;;;0.70;;
5022;SDS011;2530;47.990;7.866;2023-08-06T13:04:10;0.70;;;0.60;;
5022;SDS011;2530;47.990;7.866;2023-08-06T13:06:36;1.40;;;0.60;;
5022;SDS011;2530;47.990;7.866;2023-08-06T13:09:04;0.70;;;0.60;;
5022;SDS011;2530;47.990;7.866;2023-08-06T13:11:32;0.85;;;0.60;;
5022;SDS011;2530;47.990;7.866;2023-08-06T13:14:08;0.70;;;0.70;;
5022;SDS011;2530;47.990;7.866;2023-08-06T13:16:36;0.98;;;0.57;;
5022;SDS011;2530;47.990;7.866;2023-08-06T13:19:02;1.95;;;0.60;;
5022;SDS011;2530;47.990;7.866;2023-08-06T13:21:32;0.90;;;0.57;;
5022;SDS011;2530;47.990;7.866;2023-08-06T13:24:01;1.75;;;0.70;;
5022;SDS011;2530;47.990;7.866;2023-08-06T13:26:28;1.10;;;0.60;;
5022;SDS011;2530;47.990;7.866;2023-08-06T13:28:54;1.20;;;0.50;;
5022;SDS011;2530;47.990;7.866;2023-08-06T13:31:21;0.90;;;0.70;;
5022;SDS011;2530;47.990;7.866;2023-08-06T13:33:47;0.80;;;0.70;;
5022;SDS011;2530;47.990;7.866;2023-08-06T13:36:14;0.60;;;0.60;;
5022;SDS011;2530;47.990;7.866;2023-08-06T13:38:40;1.70;;;0.60;;
5022;SDS011;2530;47.990;7.866;2023-08-06T13:41:06;1.10;;;0.80;;
5022;SDS011;2530;47.990;7.866;2023-08-06T13:43:31;1.60;;;0.80;;
5022;SDS011;2530;47.990;7.866;2023-08-06T13:45:57;1.40;;;0.70;;
5022;SDS011;2530;47.990;7.866;2023-08-06T13:48:24;1.50;;;0.90;;
5022;SDS011;2530;47.990;7.866;2023-08-06T13:50:49;0.77;;;0.60;;
5022;SDS011;2530;47.990;7.866;2023-08-06T13:53:15;1.10;;;0.73;;
5022;SDS011;2530;47.990;7.866;2023-08-06T13:55:40;0.80;;;0.60;;
5022;SDS011;2530;47.990;7.866;2023-08-06T13:58:06;1.57;;;0.90;;
5022;SDS011;2530;47.990;7.866;2023-08-06T14:00:31;1.00;;;0.80;;
5022;SDS011;2530;47.990;7.866;2023-08-06T14:02:57;0.80;;;0.60;;
5022;SDS011;2530;47.990;7.866;2023-08-06T14:05:23;1.30;;;0.80;;
5022;SDS011;2530;47.990;7.866;2023-08-06T14:07:48;0.80;;;0.60;;
5022;SDS011;2530;47.990;7.866;2023-08-06T14:10:14;0.90;;;0.70;;
5022;SDS011;2530;47.990;7.866;2023-08-06T14:12:39;1.47;;;0.80;;
5022;SDS011;2530;47.990;7.866;2023-08-06T14:15:05;1.90;;;0.70;;
5022;SDS011;2530;47.990;7.866;2023-08-06T14:17:31;0.90;;;0.70;;
5022;SDS011;2530;47.990;7.866;2023-08-06T14:19:57;0.90;;;0.63;;
5022;SDS011;2530;47.990;7.866;2023-08-06T14:22:22;0.90;;;0.80;;
5022;SDS011;2530;47.990;7.866;2023-08-06T14:24:48;0.80;;;0.60;;
5022;SDS011;2530;47.990;7.866;2023-08-06T14:27:13;0.80;;;0.80;;
5022;SDS011;2530;47.990;7.866;2023-08-06T14:29:39;1.70;;;0.50;;
5022;SDS011;2530;47.990;7.866;2023-08-06T14:32:04;1.60;;;0.60;;
5022;SDS011;2530;47.990;7.866;2023-08-06T14:34:30;1.70;;;0.90;;
5022;SDS011;2530;47.990;7.866;2023-08-06T14:36:56;2.20;;;1.20;;
5022;SDS011;2530;47.990;7.866;2023-08-06T14:39:22;1.15;;;0.70;;
5022;SDS011;2530;47.990;7.866;2023-08-06T14:41:47;1.00;;;0.90;;
5022;SDS011;2530;47.990;7.866;2023-08-06T14:44:13;1.00;;;0.80;;
5022;SDS011;2530;47.990;7.866;2023-08-06T14:46:38;0.80;;;0.80;;
5022;SDS011;2530;47.990;7.866;2023-08-06T14:49:04;2.33;;;1.10;;
5022;SDS011;2530;47.990;7.866;2023-08-06T14:51:30;0.90;;;0.70;;
5022;SDS011;2530;47.990;7.866;2023-08-06T14:53:55;1.00;;;0.70;;
5022;SDS011;2530;47.990;7.866;2023-08-06T14:56:21;3.00;;;1.10;;
5022;SDS011;2530;47.990;7.866;2023-08-06T14:58:47;1.20;;;0.80;;
5022;SDS011;2530;47.990;7.866;2023-08-06T15:01:12;1.25;;;0.80;;
5022;SDS011;2530;47.990;7.866;2023-08-06T15:03:38;1.90;;;0.90;;
5022;SDS011;2530;47.990;7.866;2023-08-06T15:06:03;1.60;;;0.60;;
5022;SDS011;2530;47.990;7.866;2023-08-06T15:08:29;1.40;;;0.80;;
5022;SDS011;2530;47.990;7.866;2023-08-06T15:10:54;0.80;;;0.80;;
5022;SDS011;2530;47.990;7.866;2023-08-06T15:13:20;0.97;;;0.70;;
5022;SDS011;2530;47.990;7.866;2023-08-06T15:15:46;1.80;;;1.00;;
5022;SDS011;2530;47.990;7.866;2023-08-06T15:18:13;0.90;;;0.77;;